sensor_id;sensor_type;location;lat;lon;timestamp;P1;durP1;ratioP1;P2;durP2;ratioP2
8281;SDS011;25606;42.686;23.136;2022-12-08T00:01:29;27.87;;;15.93;;
8281;SDS011;25606;42.686;23.136;2022-12-08T00:03:57;24.53;;;15.47;;
8281;SDS011;25606;42.686;23.136;2022-12-08T00:06:26;26.40;;;14.80;;
8281;SDS011;25606;42.686;23.136;2022-12-08T00:09:15;24.30;;;15.93;;
8281;SDS011;25606;42.686;23.136;2022-12-08T00:11:51;28.33;;;16.53;;
8281;SDS011;25606;42.686;23.136;2022-12-08T00:14:19;23.83;;;14.63;;
8281;SDS011;25606;42.686;23.136;2022-12-08T00:16:48;24.87;;;15.33;;
8281;SDS011;25606;42.686;23.136;2022-12-08T00:19:15;22.87;;;15.83;;
8281;SDS011;25606;42.686;23.136;2022-12-08T00:21:43;28.37;;;16.93;;
8281;SDS011;25606;42.686;23.136;2022-12-08T00:24:10;26.77;;;16.50;;
8281;SDS011;25606;42.686;23.136;2022-12-08T00:26:38;22.17;;;14.70;;
8281;SDS011;25606;42.686;23.136;2022-12-08T00:29:10;26.20;;;16.07;;
8281;SDS011;25606;42.686;23.136;2022-12-08T00:31:37;24.20;;;15.03;;
8281;SDS011;25606;42.686;23.136;2022-12-08T00:34:05;23.00;;;15.73;;
8281;SDS011;25606;42.686;23.136;2022-12-08T00:36:32;22.73;;;15.20;;
8281;SDS011;25606;42.686;23.136;2022-12-08T00:39:00;24.27;;;15.70;;
8281;SDS011;25606;42.686;23.136;2022-12-08T00:41:27;23.40;;;15.20;;
8281;SDS011;25606;42.686;23.136;2022-12-08T00:44:14;26.07;;;15.27;;
8281;SDS011;25606;42.686;23.136;2022-12-08T00:46:43;23.53;;;15.03;;
8281;SDS011;25606;42.686;23.136;2022-12-08T00:49:10;24.70;;;15.27;;
8281;SDS011;25606;42.686;23.136;2022-12-08T00:51:37;25.43;;;16.17;;
8281;SDS011;25606;42.686;23.136;2022-12-08T00:54:05;24.83;;;15.57;;
8281;SDS011;25606;42.686;23.136;2022-12-08T00:56:33;26.67;;;16.87;;
8281;SDS011;25606;42.686;23.136;2022-12-08T00:59:00;25.40;;;16.13;;
8281;SDS011;25606;42.686;23.136;2022-12-08T01:01:30;24.53;;;14.97;;
8281;SDS011;25606;42.686;23.136;2022-12-08T01:04:01;27.97;;;14.53;;
8281;SDS011;25606;42.686;23.136;2022-12-08T01:06:28;23.37;;;14.83;;
8281;SDS011;25606;42.686;23.136;2022-12-08T01:08:55;22.50;;;14.13;;
8281;SDS011;25606;42.686;23.136;2022-12-08T01:11:23;20.70;;;13.87;;
8281;SDS011;25606;42.686;23.136;2022-12-08T01:13:50;21.37;;;12.27;;
8281;SDS011;25606;42.686;23.136;2022-12-08T01:16:18;12.50;;;8.73;;
8281;SDS011;25606;42.686;23.136;2022-12-08T01:18:46;14.10;;;8.87;;
8281;SDS011;25606;42.686;23.136;2022-12-08T01:21:14;16.90;;;9.60;;
8281;SDS011;25606;42.686;23.136;2022-12-08T01:23:41;14.83;;;10.93;;
8281;SDS011;25606;42.686;23.136;2022-12-08T01:26:09;23.23;;;13.63;;
8281;SDS011;25606;42.686;23.136;2022-12-08T01:28:37;26.50;;;15.07;;
8281;SDS011;25606;42.686;23.136;2022-12-08T01:31:08;24.33;;;15.07;;
8281;SDS011;25606;42.686;23.136;2022-12-08T01:33:36;22.50;;;14.57;;
8281;SDS011;25606;42.686;23.136;2022-12-08T01:36:05;18.90;;;12.90;;
8281;SDS011;25606;42.686;23.136;2022-12-08T01:38:33;21.97;;;13.27;;
8281;SDS011;25606;42.686;23.136;2022-12-08T01:41:00;23.83;;;13.17;;
8281;SDS011;25606;42.686;23.136;2022-12-08T01:46:10;26.83;;;15.50;;
8281;SDS011;25606;42.686;23.136;2022-12-08T01:48:37;27.73;;;20.90;;
8281;SDS011;25606;42.686;23.136;2022-12-08T01:51:06;25.87;;;18.73;;
8281;SDS011;25606;42.686;23.136;2022-12-08T01:53:33;23.73;;;15.83;;
8281;SDS011;25606;42.686;23.136;2022-12-08T01:56:02;24.33;;;13.60;;
8281;SDS011;25606;42.686;23.136;2022-12-08T01:58:33;24.60;;;14.80;;
8281;SDS011;25606;42.686;23.136;2022-12-08T02:01:01;25.73;;;15.73;;
8281;SDS011;25606;42.686;23.136;2022-12-08T02:03:30;25.30;;;15.93;;
8281;SDS011;25606;42.686;23.136;2022-12-08T02:06:00;27.87;;;15.23;;
8281;SDS011;25606;42.686;23.136;2022-12-08T02:08:29;26.33;;;13.83;;
8281;SDS011;25606;42.686;23.136;2022-12-08T02:10:56;23.03;;;13.60;;
8281;SDS011;25606;42.686;23.136;2022-12-08T02:13:24;25.97;;;14.20;;
8281;SDS011;25606;42.686;23.136;2022-12-08T02:15:53;27.63;;;15.17;;
8281;SDS011;25606;42.686;23.136;2022-12-08T02:18:27;22.13;;;13.63;;
8281;SDS011;25606;42.686;23.136;2022-12-08T02:20:58;24.70;;;15.93;;
8281;SDS011;25606;42.686;23.136;2022-12-08T02:23:33;26.97;;;15.03;;
8281;SDS011;25606;42.686;23.136;2022-12-08T02:26:13;26.63;;;14.23;;
8281;SDS011;25606;42.686;23.136;2022-12-08T02:28:51;28.40;;;15.10;;
8281;SDS011;25606;42.686;23.136;2022-12-08T02:31:27;28.53;;;15.10;;
8281;SDS011;25606;42.686;23.136;2022-12-08T02:36:43;27.80;;;14.87;;
8281;SDS011;25606;42.686;23.136;2022-12-08T02:39:21;21.27;;;12.93;;
8281;SDS011;25606;42.686;23.136;2022-12-08T02:41:52;22.83;;;13.37;;
8281;SDS011;25606;42.686;23.136;2022-12-08T02:44:22;21.97;;;13.33;;
8281;SDS011;25606;42.686;23.136;2022-12-08T02:46:51;24.53;;;13.83;;
8281;SDS011;25606;42.686;23.136;2022-12-08T02:49:20;21.97;;;13.90;;
8281;SDS011;25606;42.686;23.136;2022-12-08T02:51:48;21.30;;;13.10;;
8281;SDS011;25606;42.686;23.136;2022-12-08T02:54:16;21.57;;;12.60;;
8281;SDS011;25606;42.686;23.136;2022-12-08T02:56:53;23.43;;;13.23;;
8281;SDS011;25606;42.686;23.136;2022-12-08T02:59:32;21.63;;;12.43;;
8281;SDS011;25606;42.686;23.136;2022-12-08T03:02:09;20.67;;;11.87;;
8281;SDS011;25606;42.686;23.136;2022-12-08T03:04:42;22.67;;;13.43;;
8281;SDS011;25606;42.686;23.136;2022-12-08T03:07:13;18.47;;;11.70;;
8281;SDS011;25606;42.686;23.136;2022-12-08T03:09:45;22.33;;;11.30;;
8281;SDS011;25606;42.686;23.136;2022-12-08T03:12:15;20.70;;;11.30;;
8281;SDS011;25606;42.686;23.136;2022-12-08T03:14:44;18.70;;;10.93;;
8281;SDS011;25606;42.686;23.136;2022-12-08T03:17:13;17.67;;;11.27;;
8281;SDS011;25606;42.686;23.136;2022-12-08T03:19:40;15.50;;;10.13;;
8281;SDS011;25606;42.686;23.136;2022-12-08T03:22:08;14.40;;;9.93;;
8281;SDS011;25606;42.686;23.136;2022-12-08T03:24:39;13.50;;;9.83;;
8281;SDS011;25606;42.686;23.136;2022-12-08T03:27:08;16.13;;;10.27;;
8281;SDS011;25606;42.686;23.136;2022-12-08T03:29:35;19.53;;;10.13;;
8281;SDS011;25606;42.686;23.136;2022-12-08T03:32:05;20.50;;;11.03;;
8281;SDS011;25606;42.686;23.136;2022-12-08T03:34:34;16.77;;;10.87;;
8281;SDS011;25606;42.686;23.136;2022-12-08T03:37:02;18.37;;;10.67;;
8281;SDS011;25606;42.686;23.136;2022-12-08T03:39:29;15.60;;;10.20;;
8281;SDS011;25606;42.686;23.136;2022-12-08T03:41:58;16.00;;;10.37;;
8281;SDS011;25606;42.686;23.136;2022-12-08T03:44:25;17.27;;;10.23;;
8281;SDS011;25606;42.686;23.136;2022-12-08T03:46:53;17.53;;;10.50;;
8281;SDS011;25606;42.686;23.136;2022-12-08T03:49:20;17.77;;;11.30;;
8281;SDS011;25606;42.686;23.136;2022-12-08T03:51:47;19.30;;;10.10;;
8281;SDS011;25606;42.686;23.136;2022-12-08T03:54:15;20.77;;;11.03;;
8281;SDS011;25606;42.686;23.136;2022-12-08T03:56:42;16.53;;;10.57;;
8281;SDS011;25606;42.686;23.136;2022-12-08T03:59:10;18.73;;;10.43;;
8281;SDS011;25606;42.686;23.136;2022-12-08T04:01:38;21.40;;;10.43;;
8281;SDS011;25606;42.686;23.136;2022-12-08T04:04:05;21.43;;;11.90;;
8281;SDS011;25606;42.686;23.136;2022-12-08T04:06:33;17.27;;;11.33;;
8281;SDS011;25606;42.686;23.136;2022-12-08T04:09:00;17.73;;;10.93;;
8281;SDS011;25606;42.686;23.136;2022-12-08T04:11:27;15.53;;;10.30;;
8281;SDS011;25606;42.686;23.136;2022-12-08T04:13:54;21.00;;;10.47;;
8281;SDS011;25606;42.686;23.136;2022-12-08T04:16:24;17.37;;;11.43;;
8281;SDS011;25606;42.686;23.136;2022-12-08T04:18:52;20.83;;;11.40;;
8281;SDS011;25606;42.686;23.136;2022-12-08T04:21:20;43.77;;;33.83;;
8281;SDS011;25606;42.686;23.136;2022-12-08T04:23:47;24.57;;;14.77;;
8281;SDS011;25606;42.686;23.136;2022-12-08T04:26:15;20.33;;;11.57;;
8281;SDS011;25606;42.686;23.136;2022-12-08T04:28:42;22.10;;;13.10;;
8281;SDS011;25606;42.686;23.136;2022-12-08T04:31:10;25.77;;;16.43;;
8281;SDS011;25606;42.686;23.136;2022-12-08T04:33:38;22.77;;;13.43;;
8281;SDS011;25606;42.686;23.136;2022-12-08T04:36:06;19.93;;;11.43;;
8281;SDS011;25606;42.686;23.136;2022-12-08T04:38:33;21.67;;;11.70;;
8281;SDS011;25606;42.686;23.136;2022-12-08T04:41:01;20.87;;;12.73;;
8281;SDS011;25606;42.686;23.136;2022-12-08T04:43:28;20.20;;;11.70;;
8281;SDS011;25606;42.686;23.136;2022-12-08T04:45:55;23.60;;;13.03;;
8281;SDS011;25606;42.686;23.136;2022-12-08T04:48:23;10.67;;;7.60;;
8281;SDS011;25606;42.686;23.136;2022-12-08T04:50:51;13.43;;;9.07;;
8281;SDS011;25606;42.686;23.136;2022-12-08T04:53:19;19.23;;;9.57;;
8281;SDS011;25606;42.686;23.136;2022-12-08T04:55:46;17.27;;;9.40;;
8281;SDS011;25606;42.686;23.136;2022-12-08T04:58:14;13.63;;;7.97;;
8281;SDS011;25606;42.686;23.136;2022-12-08T05:00:42;15.90;;;9.27;;
8281;SDS011;25606;42.686;23.136;2022-12-08T05:03:09;16.80;;;10.17;;
8281;SDS011;25606;42.686;23.136;2022-12-08T05:05:37;22.30;;;14.30;;
8281;SDS011;25606;42.686;23.136;2022-12-08T05:08:05;18.63;;;12.37;;
8281;SDS011;25606;42.686;23.136;2022-12-08T05:10:33;24.47;;;13.50;;
8281;SDS011;25606;42.686;23.136;2022-12-08T05:13:00;18.33;;;12.70;;
8281;SDS011;25606;42.686;23.136;2022-12-08T05:15:27;23.43;;;12.57;;
8281;SDS011;25606;42.686;23.136;2022-12-08T05:17:55;21.77;;;12.87;;
8281;SDS011;25606;42.686;23.136;2022-12-08T05:20:22;25.07;;;13.80;;
8281;SDS011;25606;42.686;23.136;2022-12-08T05:22:49;25.60;;;15.27;;
8281;SDS011;25606;42.686;23.136;2022-12-08T05:25:19;22.20;;;13.90;;
8281;SDS011;25606;42.686;23.136;2022-12-08T05:27:46;26.17;;;15.17;;
8281;SDS011;25606;42.686;23.136;2022-12-08T05:30:14;23.90;;;13.57;;
8281;SDS011;25606;42.686;23.136;2022-12-08T05:32:41;12.53;;;8.07;;
8281;SDS011;25606;42.686;23.136;2022-12-08T05:35:08;16.20;;;10.90;;
8281;SDS011;25606;42.686;23.136;2022-12-08T05:37:36;16.00;;;10.43;;
8281;SDS011;25606;42.686;23.136;2022-12-08T05:40:03;19.63;;;9.83;;
8281;SDS011;25606;42.686;23.136;2022-12-08T05:42:32;15.07;;;10.30;;
8281;SDS011;25606;42.686;23.136;2022-12-08T05:44:59;28.97;;;15.70;;
8281;SDS011;25606;42.686;23.136;2022-12-08T05:47:27;24.70;;;15.53;;
8281;SDS011;25606;42.686;23.136;2022-12-08T05:49:54;24.57;;;14.77;;
8281;SDS011;25606;42.686;23.136;2022-12-08T05:52:21;26.57;;;15.67;;
8281;SDS011;25606;42.686;23.136;2022-12-08T05:54:49;24.83;;;15.63;;
8281;SDS011;25606;42.686;23.136;2022-12-08T05:57:16;23.53;;;15.17;;
8281;SDS011;25606;42.686;23.136;2022-12-08T05:59:45;27.30;;;16.93;;
8281;SDS011;25606;42.686;23.136;2022-12-08T06:02:12;27.10;;;15.47;;
8281;SDS011;25606;42.686;23.136;2022-12-08T06:04:39;29.07;;;16.10;;
8281;SDS011;25606;42.686;23.136;2022-12-08T06:07:07;30.20;;;15.93;;
8281;SDS011;25606;42.686;23.136;2022-12-08T06:09:34;29.03;;;16.03;;
8281;SDS011;25606;42.686;23.136;2022-12-08T06:12:02;31.63;;;17.37;;
8281;SDS011;25606;42.686;23.136;2022-12-08T06:14:29;30.90;;;18.23;;
8281;SDS011;25606;42.686;23.136;2022-12-08T06:16:58;36.73;;;19.93;;
8281;SDS011;25606;42.686;23.136;2022-12-08T06:19:25;34.40;;;18.60;;
8281;SDS011;25606;42.686;23.136;2022-12-08T06:21:52;34.37;;;20.20;;
8281;SDS011;25606;42.686;23.136;2022-12-08T06:24:20;35.63;;;19.57;;
8281;SDS011;25606;42.686;23.136;2022-12-08T06:26:47;32.83;;;18.17;;
8281;SDS011;25606;42.686;23.136;2022-12-08T06:29:14;42.57;;;19.10;;
8281;SDS011;25606;42.686;23.136;2022-12-08T06:31:41;34.97;;;19.13;;
8281;SDS011;25606;42.686;23.136;2022-12-08T06:34:10;57.47;;;19.07;;
8281;SDS011;25606;42.686;23.136;2022-12-08T06:36:37;67.63;;;20.53;;
8281;SDS011;25606;42.686;23.136;2022-12-08T06:39:05;42.50;;;19.10;;
8281;SDS011;25606;42.686;23.136;2022-12-08T06:41:32;41.03;;;20.57;;
8281;SDS011;25606;42.686;23.136;2022-12-08T06:44:20;78.43;;;19.83;;
8281;SDS011;25606;42.686;23.136;2022-12-08T06:46:47;41.83;;;19.57;;
8281;SDS011;25606;42.686;23.136;2022-12-08T06:49:16;43.43;;;19.67;;
8281;SDS011;25606;42.686;23.136;2022-12-08T06:51:43;60.00;;;20.63;;
8281;SDS011;25606;42.686;23.136;2022-12-08T06:54:10;47.27;;;20.23;;
8281;SDS011;25606;42.686;23.136;2022-12-08T06:56:38;44.83;;;20.47;;
8281;SDS011;25606;42.686;23.136;2022-12-08T06:59:05;37.83;;;21.07;;
8281;SDS011;25606;42.686;23.136;2022-12-08T07:01:32;47.50;;;21.47;;
8281;SDS011;25606;42.686;23.136;2022-12-08T07:03:59;41.67;;;20.37;;
8281;SDS011;25606;42.686;23.136;2022-12-08T07:06:28;36.53;;;19.37;;
8281;SDS011;25606;42.686;23.136;2022-12-08T07:08:55;38.13;;;21.03;;
8281;SDS011;25606;42.686;23.136;2022-12-08T07:11:23;33.63;;;21.20;;
8281;SDS011;25606;42.686;23.136;2022-12-08T07:13:51;33.27;;;20.47;;
8281;SDS011;25606;42.686;23.136;2022-12-08T07:16:18;31.07;;;18.77;;
8281;SDS011;25606;42.686;23.136;2022-12-08T07:18:46;28.80;;;16.70;;
8281;SDS011;25606;42.686;23.136;2022-12-08T07:21:13;23.93;;;15.47;;
8281;SDS011;25606;42.686;23.136;2022-12-08T07:23:43;29.50;;;16.90;;
8281;SDS011;25606;42.686;23.136;2022-12-08T07:26:11;23.47;;;14.00;;
8281;SDS011;25606;42.686;23.136;2022-12-08T07:28:39;27.57;;;13.87;;
8281;SDS011;25606;42.686;23.136;2022-12-08T07:31:07;14.33;;;9.17;;
8281;SDS011;25606;42.686;23.136;2022-12-08T07:33:41;14.70;;;8.97;;
8281;SDS011;25606;42.686;23.136;2022-12-08T07:36:08;13.87;;;8.60;;
8281;SDS011;25606;42.686;23.136;2022-12-08T07:38:36;12.27;;;9.07;;
8281;SDS011;25606;42.686;23.136;2022-12-08T07:41:04;9.97;;;7.30;;
8281;SDS011;25606;42.686;23.136;2022-12-08T07:43:32;10.50;;;7.77;;
8281;SDS011;25606;42.686;23.136;2022-12-08T07:45:59;9.60;;;7.10;;
8281;SDS011;25606;42.686;23.136;2022-12-08T07:48:26;10.87;;;6.77;;
8281;SDS011;25606;42.686;23.136;2022-12-08T07:50:58;7.70;;;6.27;;
8281;SDS011;25606;42.686;23.136;2022-12-08T07:53:26;9.50;;;5.73;;
8281;SDS011;25606;42.686;23.136;2022-12-08T07:55:53;9.43;;;5.40;;
8281;SDS011;25606;42.686;23.136;2022-12-08T07:58:22;8.57;;;5.57;;
8281;SDS011;25606;42.686;23.136;2022-12-08T08:00:49;7.63;;;5.37;;
8281;SDS011;25606;42.686;23.136;2022-12-08T08:03:17;6.50;;;5.27;;
8281;SDS011;25606;42.686;23.136;2022-12-08T08:05:46;6.63;;;5.90;;
8281;SDS011;25606;42.686;23.136;2022-12-08T08:08:14;8.10;;;5.00;;
8281;SDS011;25606;42.686;23.136;2022-12-08T08:10:41;9.97;;;5.30;;
8281;SDS011;25606;42.686;23.136;2022-12-08T08:13:09;6.30;;;5.17;;
8281;SDS011;25606;42.686;23.136;2022-12-08T08:15:37;9.77;;;4.90;;
8281;SDS011;25606;42.686;23.136;2022-12-08T08:18:05;8.67;;;5.70;;
8281;SDS011;25606;42.686;23.136;2022-12-08T08:20:32;8.97;;;5.20;;
8281;SDS011;25606;42.686;23.136;2022-12-08T08:23:00;7.70;;;5.70;;
8281;SDS011;25606;42.686;23.136;2022-12-08T08:25:27;6.77;;;5.00;;
8281;SDS011;25606;42.686;23.136;2022-12-08T08:27:55;7.53;;;5.53;;
8281;SDS011;25606;42.686;23.136;2022-12-08T08:30:22;6.27;;;4.63;;
8281;SDS011;25606;42.686;23.136;2022-12-08T08:32:51;7.73;;;5.50;;
8281;SDS011;25606;42.686;23.136;2022-12-08T08:35:18;7.13;;;4.60;;
8281;SDS011;25606;42.686;23.136;2022-12-08T08:37:45;5.37;;;4.33;;
8281;SDS011;25606;42.686;23.136;2022-12-08T08:40:12;8.13;;;4.80;;
8281;SDS011;25606;42.686;23.136;2022-12-08T08:42:40;6.20;;;4.30;;
8281;SDS011;25606;42.686;23.136;2022-12-08T08:45:07;4.53;;;3.93;;
8281;SDS011;25606;42.686;23.136;2022-12-08T08:47:35;7.07;;;4.60;;
8281;SDS011;25606;42.686;23.136;2022-12-08T08:50:04;10.20;;;4.53;;
8281;SDS011;25606;42.686;23.136;2022-12-08T08:52:31;6.60;;;5.00;;
8281;SDS011;25606;42.686;23.136;2022-12-08T08:54:58;8.23;;;4.97;;
8281;SDS011;25606;42.686;23.136;2022-12-08T08:57:26;7.13;;;4.60;;
8281;SDS011;25606;42.686;23.136;2022-12-08T08:59:53;4.27;;;3.80;;
8281;SDS011;25606;42.686;23.136;2022-12-08T09:02:20;8.93;;;4.60;;
8281;SDS011;25606;42.686;23.136;2022-12-08T09:04:48;8.30;;;4.83;;
8281;SDS011;25606;42.686;23.136;2022-12-08T09:07:16;10.07;;;6.30;;
8281;SDS011;25606;42.686;23.136;2022-12-08T09:09:44;9.60;;;5.67;;
8281;SDS011;25606;42.686;23.136;2022-12-08T09:12:11;7.73;;;4.10;;
8281;SDS011;25606;42.686;23.136;2022-12-08T09:14:39;8.83;;;4.57;;
8281;SDS011;25606;42.686;23.136;2022-12-08T09:17:06;6.77;;;4.77;;
8281;SDS011;25606;42.686;23.136;2022-12-08T09:19:33;7.43;;;4.50;;
8281;SDS011;25606;42.686;23.136;2022-12-08T09:22:01;10.47;;;7.50;;
8281;SDS011;25606;42.686;23.136;2022-12-08T09:24:30;19.50;;;13.17;;
8281;SDS011;25606;42.686;23.136;2022-12-08T09:26:57;18.20;;;12.50;;
8281;SDS011;25606;42.686;23.136;2022-12-08T09:29:25;23.10;;;14.53;;
8281;SDS011;25606;42.686;23.136;2022-12-08T09:31:52;26.60;;;15.83;;
8281;SDS011;25606;42.686;23.136;2022-12-08T09:34:20;20.37;;;14.83;;
8281;SDS011;25606;42.686;23.136;2022-12-08T09:36:48;38.37;;;24.10;;
8281;SDS011;25606;42.686;23.136;2022-12-08T09:39:15;58.30;;;31.93;;
8281;SDS011;25606;42.686;23.136;2022-12-08T09:41:44;25.47;;;17.00;;
8281;SDS011;25606;42.686;23.136;2022-12-08T09:47:00;26.80;;;16.97;;
8281;SDS011;25606;42.686;23.136;2022-12-08T09:49:32;26.43;;;16.30;;
8281;SDS011;25606;42.686;23.136;2022-12-08T09:52:01;21.83;;;15.10;;
8281;SDS011;25606;42.686;23.136;2022-12-08T09:54:30;20.10;;;14.17;;
8281;SDS011;25606;42.686;23.136;2022-12-08T09:57:02;38.57;;;25.67;;
8281;SDS011;25606;42.686;23.136;2022-12-08T09:59:32;22.07;;;15.30;;
8281;SDS011;25606;42.686;23.136;2022-12-08T10:02:00;24.63;;;15.10;;
8281;SDS011;25606;42.686;23.136;2022-12-08T10:04:28;22.53;;;14.07;;
8281;SDS011;25606;42.686;23.136;2022-12-08T10:06:58;26.20;;;16.70;;
8281;SDS011;25606;42.686;23.136;2022-12-08T10:09:31;23.93;;;16.10;;
8281;SDS011;25606;42.686;23.136;2022-12-08T10:12:04;24.00;;;15.47;;
8281;SDS011;25606;42.686;23.136;2022-12-08T10:14:36;25.77;;;16.13;;
8281;SDS011;25606;42.686;23.136;2022-12-08T10:17:11;25.20;;;16.47;;
8281;SDS011;25606;42.686;23.136;2022-12-08T10:19:42;23.13;;;15.80;;
8281;SDS011;25606;42.686;23.136;2022-12-08T10:22:12;23.17;;;14.10;;
8281;SDS011;25606;42.686;23.136;2022-12-08T10:24:42;26.73;;;15.60;;
8281;SDS011;25606;42.686;23.136;2022-12-08T10:27:15;21.97;;;16.03;;
8281;SDS011;25606;42.686;23.136;2022-12-08T10:29:42;21.37;;;16.30;;
8281;SDS011;25606;42.686;23.136;2022-12-08T10:32:12;25.93;;;18.33;;
8281;SDS011;25606;42.686;23.136;2022-12-08T10:37:22;22.43;;;15.93;;
8281;SDS011;25606;42.686;23.136;2022-12-08T10:39:55;27.27;;;18.80;;
8281;SDS011;25606;42.686;23.136;2022-12-08T10:42:27;22.10;;;16.47;;
8281;SDS011;25606;42.686;23.136;2022-12-08T10:44:59;23.93;;;15.03;;
8281;SDS011;25606;42.686;23.136;2022-12-08T10:47:28;28.30;;;17.47;;
8281;SDS011;25606;42.686;23.136;2022-12-08T10:50:07;21.57;;;14.23;;
8281;SDS011;25606;42.686;23.136;2022-12-08T10:52:36;24.97;;;15.87;;
8281;SDS011;25606;42.686;23.136;2022-12-08T10:55:11;24.33;;;15.60;;
8281;SDS011;25606;42.686;23.136;2022-12-08T10:57:40;24.87;;;16.03;;
8281;SDS011;25606;42.686;23.136;2022-12-08T11:00:11;23.90;;;16.27;;
8281;SDS011;25606;42.686;23.136;2022-12-08T11:02:48;24.03;;;15.97;;
8281;SDS011;25606;42.686;23.136;2022-12-08T11:05:16;21.43;;;14.10;;
8281;SDS011;25606;42.686;23.136;2022-12-08T11:07:45;23.17;;;14.33;;
8281;SDS011;25606;42.686;23.136;2022-12-08T11:10:16;19.33;;;13.93;;
8281;SDS011;25606;42.686;23.136;2022-12-08T11:12:45;19.67;;;13.73;;
8281;SDS011;25606;42.686;23.136;2022-12-08T11:15:13;20.63;;;13.73;;
8281;SDS011;25606;42.686;23.136;2022-12-08T11:17:41;25.40;;;15.37;;
8281;SDS011;25606;42.686;23.136;2022-12-08T11:20:21;19.43;;;13.53;;
8281;SDS011;25606;42.686;23.136;2022-12-08T11:22:51;22.07;;;13.60;;
8281;SDS011;25606;42.686;23.136;2022-12-08T11:25:19;18.77;;;13.30;;
8281;SDS011;25606;42.686;23.136;2022-12-08T11:27:48;20.33;;;13.87;;
8281;SDS011;25606;42.686;23.136;2022-12-08T11:30:17;17.80;;;12.77;;
8281;SDS011;25606;42.686;23.136;2022-12-08T11:32:45;16.83;;;13.13;;
8281;SDS011;25606;42.686;23.136;2022-12-08T11:35:16;19.57;;;13.67;;
8281;SDS011;25606;42.686;23.136;2022-12-08T11:37:44;22.17;;;12.80;;
8281;SDS011;25606;42.686;23.136;2022-12-08T11:40:14;16.90;;;12.97;;
8281;SDS011;25606;42.686;23.136;2022-12-08T11:42:45;25.23;;;16.63;;
8281;SDS011;25606;42.686;23.136;2022-12-08T11:45:19;19.20;;;13.17;;
8281;SDS011;25606;42.686;23.136;2022-12-08T11:47:48;18.00;;;12.13;;
8281;SDS011;25606;42.686;23.136;2022-12-08T11:50:19;20.77;;;13.60;;
8281;SDS011;25606;42.686;23.136;2022-12-08T11:52:48;19.13;;;12.83;;
8281;SDS011;25606;42.686;23.136;2022-12-08T11:55:20;18.70;;;13.57;;
8281;SDS011;25606;42.686;23.136;2022-12-08T11:57:51;19.90;;;11.90;;
8281;SDS011;25606;42.686;23.136;2022-12-08T12:00:22;16.33;;;12.70;;
8281;SDS011;25606;42.686;23.136;2022-12-08T12:02:51;21.10;;;15.47;;
8281;SDS011;25606;42.686;23.136;2022-12-08T12:05:24;19.10;;;12.23;;
8281;SDS011;25606;42.686;23.136;2022-12-08T12:07:57;18.27;;;11.70;;
8281;SDS011;25606;42.686;23.136;2022-12-08T12:10:31;17.57;;;12.37;;
8281;SDS011;25606;42.686;23.136;2022-12-08T12:13:03;19.13;;;12.13;;
8281;SDS011;25606;42.686;23.136;2022-12-08T12:18:20;17.87;;;12.53;;
8281;SDS011;25606;42.686;23.136;2022-12-08T12:20:51;16.07;;;11.43;;
8281;SDS011;25606;42.686;23.136;2022-12-08T12:23:20;16.40;;;10.97;;
8281;SDS011;25606;42.686;23.136;2022-12-08T12:25:49;18.67;;;12.27;;
8281;SDS011;25606;42.686;23.136;2022-12-08T12:28:18;15.43;;;10.53;;
8281;SDS011;25606;42.686;23.136;2022-12-08T12:30:49;18.17;;;11.57;;
8281;SDS011;25606;42.686;23.136;2022-12-08T12:33:19;17.23;;;10.97;;
8281;SDS011;25606;42.686;23.136;2022-12-08T12:35:48;17.20;;;11.17;;
8281;SDS011;25606;42.686;23.136;2022-12-08T12:38:20;17.23;;;10.67;;
8281;SDS011;25606;42.686;23.136;2022-12-08T12:41:02;17.20;;;12.23;;
8281;SDS011;25606;42.686;23.136;2022-12-08T12:43:31;17.60;;;13.43;;
8281;SDS011;25606;42.686;23.136;2022-12-08T12:48:45;17.90;;;13.30;;
8281;SDS011;25606;42.686;23.136;2022-12-08T12:54:14;18.90;;;13.87;;
8281;SDS011;25606;42.686;23.136;2022-12-08T12:56:47;18.27;;;13.20;;
8281;SDS011;25606;42.686;23.136;2022-12-08T12:59:33;18.07;;;12.70;;
8281;SDS011;25606;42.686;23.136;2022-12-08T13:02:01;19.43;;;12.23;;
8281;SDS011;25606;42.686;23.136;2022-12-08T13:04:31;19.33;;;12.27;;
8281;SDS011;25606;42.686;23.136;2022-12-08T13:06:59;18.30;;;12.60;;
8281;SDS011;25606;42.686;23.136;2022-12-08T13:09:28;22.07;;;12.23;;
8281;SDS011;25606;42.686;23.136;2022-12-08T13:11:57;19.77;;;11.13;;
8281;SDS011;25606;42.686;23.136;2022-12-08T13:14:29;15.03;;;10.00;;
8281;SDS011;25606;42.686;23.136;2022-12-08T13:16:57;13.47;;;9.67;;
8281;SDS011;25606;42.686;23.136;2022-12-08T13:19:28;13.77;;;9.47;;
8281;SDS011;25606;42.686;23.136;2022-12-08T13:21:57;15.00;;;10.47;;
8281;SDS011;25606;42.686;23.136;2022-12-08T13:24:27;15.60;;;10.00;;
8281;SDS011;25606;42.686;23.136;2022-12-08T13:29:37;16.80;;;9.27;;
8281;SDS011;25606;42.686;23.136;2022-12-08T13:32:06;18.07;;;9.37;;
8281;SDS011;25606;42.686;23.136;2022-12-08T13:34:53;21.23;;;9.10;;
8281;SDS011;25606;42.686;23.136;2022-12-08T13:37:24;14.43;;;8.53;;
8281;SDS011;25606;42.686;23.136;2022-12-08T13:39:55;13.50;;;9.73;;
8281;SDS011;25606;42.686;23.136;2022-12-08T13:42:27;18.03;;;9.37;;
8281;SDS011;25606;42.686;23.136;2022-12-08T13:44:56;18.63;;;10.97;;
8281;SDS011;25606;42.686;23.136;2022-12-08T13:47:27;15.90;;;11.10;;
8281;SDS011;25606;42.686;23.136;2022-12-08T13:49:57;19.27;;;12.67;;
8281;SDS011;25606;42.686;23.136;2022-12-08T13:52:30;20.37;;;11.07;;
8281;SDS011;25606;42.686;23.136;2022-12-08T13:54:58;54.23;;;30.27;;
8281;SDS011;25606;42.686;23.136;2022-12-08T13:57:28;56.93;;;31.90;;
8281;SDS011;25606;42.686;23.136;2022-12-08T13:59:58;11.30;;;7.57;;
8281;SDS011;25606;42.686;23.136;2022-12-08T14:02:26;9.83;;;5.20;;
8281;SDS011;25606;42.686;23.136;2022-12-08T14:04:55;7.27;;;4.00;;
8281;SDS011;25606;42.686;23.136;2022-12-08T14:07:23;5.40;;;4.20;;
8281;SDS011;25606;42.686;23.136;2022-12-08T14:09:52;6.63;;;4.03;;
8281;SDS011;25606;42.686;23.136;2022-12-08T14:12:20;5.40;;;3.27;;
8281;SDS011;25606;42.686;23.136;2022-12-08T14:14:48;5.50;;;3.40;;
8281;SDS011;25606;42.686;23.136;2022-12-08T14:17:18;6.17;;;3.83;;
8281;SDS011;25606;42.686;23.136;2022-12-08T14:19:51;6.17;;;4.13;;
8281;SDS011;25606;42.686;23.136;2022-12-08T14:22:19;6.83;;;3.60;;
8281;SDS011;25606;42.686;23.136;2022-12-08T14:24:47;9.67;;;3.60;;
8281;SDS011;25606;42.686;23.136;2022-12-08T14:27:16;7.33;;;4.17;;
8281;SDS011;25606;42.686;23.136;2022-12-08T14:29:44;4.87;;;2.90;;
8281;SDS011;25606;42.686;23.136;2022-12-08T14:32:19;7.87;;;3.57;;
8281;SDS011;25606;42.686;23.136;2022-12-08T14:34:49;8.63;;;3.57;;
8281;SDS011;25606;42.686;23.136;2022-12-08T14:37:17;9.80;;;3.60;;
8281;SDS011;25606;42.686;23.136;2022-12-08T14:39:45;4.60;;;3.33;;
8281;SDS011;25606;42.686;23.136;2022-12-08T14:42:14;9.83;;;4.07;;
8281;SDS011;25606;42.686;23.136;2022-12-08T14:44:49;8.13;;;3.80;;
8281;SDS011;25606;42.686;23.136;2022-12-08T14:47:21;7.50;;;3.50;;
8281;SDS011;25606;42.686;23.136;2022-12-08T14:49:48;4.80;;;3.50;;
8281;SDS011;25606;42.686;23.136;2022-12-08T14:52:16;8.03;;;3.60;;
8281;SDS011;25606;42.686;23.136;2022-12-08T14:54:47;6.03;;;4.20;;
8281;SDS011;25606;42.686;23.136;2022-12-08T14:57:15;6.90;;;3.93;;
8281;SDS011;25606;42.686;23.136;2022-12-08T14:59:43;6.00;;;3.77;;
8281;SDS011;25606;42.686;23.136;2022-12-08T15:02:24;5.50;;;3.80;;